createdAt,value
2023-01-21T00:00:53.546Z,26.52
2023-01-21T00:10:54.813Z,28.23
2023-01-21T00:20:56.048Z,27.35
2023-01-21T00:30:57.442Z,22.98
2023-01-21T00:40:58.736Z,21.05
2023-01-21T00:51:00.851Z,27.05
2023-01-21T01:01:02.658Z,21.42
2023-01-21T01:11:03.932Z,18.58
2023-01-21T01:21:05.181Z,18.10
2023-01-21T01:31:06.556Z,16.98
2023-01-21T01:41:07.907Z,16.35
2023-01-21T01:51:09.259Z,22.10
2023-01-21T02:01:10.562Z,22.15
2023-01-21T02:11:11.859Z,23.63
2023-01-21T02:21:13.076Z,28.40
2023-01-21T02:31:14.406Z,27.35
2023-01-21T02:41:15.762Z,32.08
2023-01-21T02:51:17.000Z,32.28
2023-01-21T03:01:18.262Z,34.58
2023-01-21T03:11:19.482Z,32.95
2023-01-21T03:21:20.699Z,32.97
2023-01-21T03:31:21.917Z,29.67
2023-01-21T03:41:23.199Z,30.13
2023-01-21T03:51:24.401Z,29.88
2023-01-21T04:01:25.640Z,35.22
2023-01-21T04:11:26.880Z,41.13
2023-01-21T04:21:28.125Z,42.13
2023-01-21T04:31:29.379Z,40.35
2023-01-21T04:41:30.663Z,50.85
2023-01-21T04:51:31.867Z,47.70
2023-01-21T05:01:33.159Z,48.13
2023-01-21T05:11:34.399Z,50.88
2023-01-21T05:21:35.632Z,53.75
2023-01-21T05:31:36.989Z,57.63
2023-01-21T05:41:38.410Z,56.03
2023-01-21T05:51:39.646Z,59.38
2023-01-21T06:01:40.894Z,59.30
2023-01-21T06:11:42.129Z,62.80
2023-01-21T06:21:43.355Z,61.40
2023-01-21T06:31:44.698Z,56.53
2023-01-21T06:41:46.053Z,48.35
2023-01-21T06:51:47.289Z,49.88
2023-01-21T07:01:48.612Z,44.65
2023-01-21T07:11:49.983Z,47.53
2023-01-21T07:21:51.204Z,54.45
2023-01-21T07:31:52.456Z,52.83
2023-01-21T07:41:53.907Z,52.33
2023-01-21T07:51:55.143Z,58.10
2023-01-21T08:01:57.921Z,54.60
2023-01-21T08:11:59.280Z,52.77
2023-01-21T08:22:00.591Z,48.92
2023-01-21T08:32:01.913Z,49.67
2023-01-21T08:42:03.411Z,45.80
2023-01-21T08:52:04.757Z,55.15
2023-01-21T09:02:06.021Z,53.00
2023-01-21T09:12:07.364Z,50.70
2023-01-21T09:22:09.405Z,55.00
2023-01-21T09:32:10.934Z,51.60
2023-01-21T09:42:12.285Z,50.25
2023-01-21T09:52:13.532Z,53.88
2023-01-21T10:02:14.811Z,48.30
2023-01-21T10:12:16.030Z,44.20
2023-01-21T10:22:17.271Z,48.50
2023-01-21T10:32:18.485Z,56.30
2023-01-21T10:42:19.703Z,60.90
2023-01-21T10:52:20.924Z,55.05
2023-01-21T11:02:23.296Z,52.92
2023-01-21T11:12:24.886Z,56.30
2023-01-21T11:22:27.345Z,47.05
2023-01-21T11:32:28.560Z,48.17
2023-01-21T11:42:29.792Z,50.38
2023-01-21T11:52:31.066Z,45.65
2023-01-21T12:02:32.388Z,44.28
2023-01-21T12:12:33.614Z,47.00
2023-01-21T12:22:34.890Z,56.25
2023-01-21T12:32:37.312Z,45.55
2023-01-21T12:42:38.620Z,44.47
2023-01-21T12:52:39.889Z,43.85
2023-01-21T13:02:41.146Z,44.25
2023-01-21T13:12:42.509Z,49.88
2023-01-21T13:22:43.718Z,51.28
2023-01-21T13:32:45.040Z,44.03
2023-01-21T13:42:47.608Z,43.72
2023-01-21T13:52:48.873Z,50.45
2023-01-21T14:02:50.129Z,44.67
2023-01-21T14:12:51.378Z,39.67
2023-01-21T14:22:52.755Z,32.42
2023-01-21T14:32:53.970Z,38.80
2023-01-21T14:42:55.234Z,41.80
2023-01-21T14:52:56.467Z,36.22
2023-01-21T15:02:57.744Z,32.75
2023-01-21T15:12:58.952Z,36.58
2023-01-21T15:23:00.159Z,45.63
2023-01-21T15:33:02.036Z,35.15
2023-01-21T15:43:03.550Z,37.78
2023-01-21T15:53:04.869Z,42.22
2023-01-21T16:03:06.090Z,31.88
2023-01-21T16:13:07.317Z,45.13
2023-01-21T16:23:08.589Z,37.33
2023-01-21T16:33:10.113Z,44.33
2023-01-21T16:43:11.371Z,38.00
2023-01-21T16:53:12.629Z,43.22
2023-01-21T17:03:13.853Z,36.40
2023-01-21T17:13:15.858Z,47.13
2023-01-21T17:23:17.075Z,35.55
2023-01-21T17:33:18.326Z,27.77
2023-01-21T17:43:19.544Z,22.85
2023-01-21T17:53:21.159Z,27.50
2023-01-21T18:03:22.456Z,26.58
2023-01-21T18:13:23.669Z,27.65
2023-01-21T18:23:24.868Z,33.83
2023-01-21T18:33:26.219Z,28.92
2023-01-21T18:43:27.453Z,26.60
2023-01-21T18:53:28.698Z,46.20
2023-01-21T19:03:29.905Z,25.75
2023-01-21T19:13:31.136Z,25.48
2023-01-21T19:23:32.469Z,23.25
2023-01-21T19:33:33.674Z,23.38
2023-01-21T19:43:34.969Z,26.17
2023-01-21T19:53:36.213Z,24.95
2023-01-21T20:03:38.807Z,22.52
2023-01-21T20:13:41.286Z,22.77
2023-01-21T20:23:42.631Z,26.58
2023-01-21T20:33:44.220Z,28.02
2023-01-21T20:43:46.773Z,26.48
2023-01-21T20:53:48.042Z,27.35
2023-01-21T21:03:49.430Z,20.23
2023-01-21T21:13:52.411Z,31.13
2023-01-21T21:23:54.091Z,31.83
2023-01-21T21:33:55.447Z,19.00
2023-01-21T21:43:56.667Z,20.30
2023-01-21T21:53:57.890Z,25.88
2023-01-21T22:03:59.124Z,21.23
2023-01-21T22:14:04.337Z,24.15
2023-01-21T22:24:08.049Z,20.20
2023-01-21T22:34:09.349Z,21.37
2023-01-21T22:44:10.750Z,21.52
2023-01-21T22:54:12.044Z,23.52
2023-01-21T23:04:14.766Z,26.17
2023-01-21T23:14:17.173Z,36.50
2023-01-21T23:24:18.471Z,36.47
2023-01-21T23:34:22.638Z,30.10
2023-01-21T23:44:25.466Z,35.65
2023-01-21T23:54:26.713Z,27.13
